KTHV Airport Information

Runway Information
Runway 17 Length 5188 ft width 100 ft
Elevation 470 ft Threshold 800 ft Heading 155
Runway 35 Length 5188 ft Width 100 ft
Elevation 480 ft Threshold 740 ft Heading 335
Airport Frequencies
Type A/D Name HARRISBURG Frequency 124.1 MHZ
Type ASOS Name ASOS Frequency 119.275 MHZ
Type CLD Name CLNC DEL Frequency 121.65 MHZ
Type UNIC Name CTAF/UNICO Frequency 123 MHZ
Airport Navaids
Airport Weather Information & NOTAM
ADDS - METARS form results

(2314 UTC 18 February 2019)
Data provider http://aviationweather.gov/metar/data/
 
METAR text: KTHV 182253Z AUTO 30013G19KT 10SM FEW042 BKN055 OVC085 02/M06 A3019 RMK AO2 SLP229 T00171056
Conditions at: KTHV (YORK , PA, US) observed 2253 UTC 18 February 2019
Temperature: 1.7°C (35°F)
Dewpoint: -5.6°C (22°F) [RH = 58%]
Pressure (altimeter): 30.19 inches Hg (1022.4 mb)
[Sea-level pressure: 1022.9 mb]
Winds: from the WNW (300 degrees) at 15 MPH (13 knots; 6.7 m/s)
gusting to 22 MPH (19 knots; 9.8 m/s)
Visibility: 10 or more miles (16+ km)
Ceiling: 5500 feet AGL
Clouds: few clouds at 4200 feet AGL
broken clouds at 5500 feet AGL
overcast cloud deck at 8500 feet AGL
Weather: automated observation with no human augmentation;
there may or may not be significant weather present at this time